Time;durP1;ratioP1;P1;durP2;ratioP2;P2;SDS_P1;SDS_P2;PMS_P1;PMS_P2;Temp;Humidity;BMP_temperature;BMP_pressure;BME280_temperature;BME280_humidity;BME280_pressure;Samples;Min_cycle;Max_cycle;Signal;HPM_P1;HPM_P2
2022/10/14 00:01:04;;;;;;;;;;;;;;;21.31;66.00;97336.30;588828;241;64868;-73
2022/10/14 00:03:33;;;;;;;;;;;;;;;21.32;66.64;97335.22;588838;241;68843;-73
2022/10/14 00:06:02;;;;;;;;;;;;;;;21.32;66.90;97337.89;588774;241;68994;-73
2022/10/14 00:08:30;;;;;;;;;;;;;;;21.31;66.52;97335.47;588830;241;62160;-72
2022/10/14 00:10:59;;;;;;;;;;;;;;;21.31;66.77;97338.97;588777;239;69303;-73
2022/10/14 00:13:27;;;;;;;;;;;;;;;21.31;67.23;97330.95;588766;241;68586;-67
2022/10/14 00:15:55;;;;;;;;;;;;;;;21.31;67.29;97330.95;588820;241;66120;-67
2022/10/14 00:18:23;;;;;;;;;;;;;;;21.30;66.02;97321.30;588828;241;69246;-67
2022/10/14 00:20:55;;;;;;;;;;;;;;;21.29;67.10;97323.18;588822;241;68601;-67
2022/10/14 00:23:23;;;;;;;;;;;;;;;21.30;66.54;97318.63;588621;241;64971;-68
2022/10/14 00:25:51;;;;;;;;;;;;;;;21.30;67.01;97313.28;588834;241;68257;-68
2022/10/14 00:28:19;;;;;;;;;;;;;;;21.28;66.37;97315.44;588817;241;68566;-68
2022/10/14 00:30:53;;;;;;;;;;;;;;;21.28;65.99;97315.44;588814;241;62837;-68
2022/10/14 00:33:21;;;;;;;;;;;;;;;21.29;67.02;97319.71;588841;241;66729;-67
2022/10/14 00:35:58;;;;;;;;;;;;;;;21.28;66.96;97318.11;588725;241;68836;-67
2022/10/14 00:38:28;;;;;;;;;;;;;;;21.29;67.36;97317.03;588653;240;44061;-67
2022/10/14 00:40:56;;;;;;;;;;;;;;;21.27;66.73;97313.81;588624;241;68804;-67
2022/10/14 00:43:25;;;;;;;;;;;;;;;21.27;66.55;97314.61;588616;239;66486;-68
2022/10/14 00:45:53;;;;;;;;;;;;;;;21.28;67.25;97312.77;588608;241;65997;-67
2022/10/14 00:48:23;;;;;;;;;;;;;;;21.27;67.10;97321.84;588637;241;67320;-67
2022/10/14 00:50:52;;;;;;;;;;;;;;;21.26;67.20;97312.22;588622;241;68669;-67
2022/10/14 00:53:20;;;;;;;;;;;;;;;21.26;66.61;97306.88;588650;241;64854;-68
2022/10/14 00:55:49;;;;;;;;;;;;;;;21.26;66.95;97306.88;588635;241;67420;-68
2022/10/14 00:58:17;;;;;;;;;;;;;;;21.26;66.92;97296.19;588619;241;68633;-68
2022/10/14 01:00:44;;;;;;;;;;;;;;;21.26;66.65;97304.20;588633;241;62691;-73
2022/10/14 01:03:20;;;;;;;;;;;;;;;21.25;67.33;97295.39;588653;241;68933;-73
2022/10/14 01:05:56;;;;;;;;;;;;;;;21.25;66.31;97294.56;588627;241;68597;-73
2022/10/14 01:08:31;;;;;;;;;;;;;;;21.25;67.44;97291.89;584402;241;62702;-73
2022/10/14 01:11:01;;;;;;;;;;;;;;;21.24;67.39;97300.98;584236;238;69007;-73
2022/10/14 01:13:32;;;;;;;;;;;;;;;21.23;67.49;97294.84;588661;241;68523;-73
2022/10/14 01:16:11;;;;;;;;;;;;;;;21.24;67.24;97292.97;588660;241;62756;-68
2022/10/14 01:18:43;;;;;;;;;;;;;;;21.22;67.11;97289.75;588622;239;68717;-68
2022/10/14 01:21:13;;;;;;;;;;;;;;;21.23;67.57;97294.05;588623;241;69304;-74
2022/10/14 01:24:01;;;;;;;;;;;;;;;21.23;67.68;97286.03;588584;240;64891;-74
2022/10/14 01:26:30;;;;;;;;;;;;;;;21.23;66.83;97291.38;588625;241;69489;-73
2022/10/14 01:28:59;;;;;;;;;;;;;;;21.23;66.95;97286.03;588653;241;66286;-73
2022/10/14 01:31:34;;;;;;;;;;;;;;;21.21;67.52;97283.61;588630;240;65391;-73
2022/10/14 01:34:04;;;;;;;;;;;;;;;21.21;67.08;97288.16;588613;241;68691;-73
2022/10/14 01:36:33;;;;;;;;;;;;;;;21.21;67.27;97286.28;588639;237;66647;-73
2022/10/14 01:39:03;;;;;;;;;;;;;;;21.20;67.48;97283.89;588843;241;65058;-72
2022/10/14 01:41:31;;;;;;;;;;;;;;;21.22;67.53;97281.73;588688;241;68542;-72
2022/10/14 01:44:01;;;;;;;;;;;;;;;21.21;67.53;97277.47;588832;239;68410;-72
2022/10/14 01:46:29;;;;;;;;;;;;;;;21.21;67.82;97269.45;588754;241;67272;-71
2022/10/14 01:48:58;;;;;;;;;;;;;;;21.20;67.98;97267.86;588790;241;69775;-72
2022/10/14 01:51:27;;;;;;;;;;;;;;;21.19;67.26;97275.05;588711;241;68716;-72
2022/10/14 01:53:56;;;;;;;;;;;;;;;21.20;67.60;97265.18;588783;241;61164;-72
2022/10/14 01:56:26;;;;;;;;;;;;;;;21.19;67.91;97264.36;588572;241;66350;-72
2022/10/14 01:58:54;;;;;;;;;;;;;;;21.19;67.13;97267.03;588814;241;68719;-72
2022/10/14 02:01:23;;;;;;;;;;;;;;;21.18;67.29;97261.97;588793;241;63050;-72
2022/10/14 02:03:51;;;;;;;;;;;;;;;21.19;66.54;97266.23;588824;241;66671;-72
2022/10/14 02:06:23;;;;;;;;;;;;;;;21.19;67.82;97258.21;588807;241;68718;-72
2022/10/14 02:08:55;;;;;;;;;;;;;;;21.18;67.47;97257.42;588561;239;62675;-72
2022/10/14 02:11:23;;;;;;;;;;;;;;;21.18;67.18;97261.97;588646;241;69002;-73
2022/10/14 02:13:57;;;;;;;;;;;;;;;21.18;67.55;97260.09;588729;241;49895;-72
2022/10/14 02:16:32;;;;;;;;;;;;;;;21.17;66.68;97261.17;588797;241;63716;-72
2022/10/14 02:19:01;;;;;;;;;;;;;;;21.18;68.13;97262.77;588686;241;68957;-72
2022/10/14 02:21:30;;;;;;;;;;;;;;;21.19;67.53;97263.56;588754;241;66585;-72
2022/10/14 02:24:01;;;;;;;;;;;;;;;21.18;68.41;97261.97;588826;241;43437;-73
2022/10/14 02:26:29;;;;;;;;;;;;;;;21.17;67.50;97257.67;588841;239;71247;-72
2022/10/14 02:29:00;;;;;;;;;;;;;;;21.17;68.11;97261.17;588857;241;69001;-72
2022/10/14 02:31:29;;;;;;;;;;;;;;;21.16;68.14;97262.22;588809;241;65223;-72
2022/10/14 02:33:58;;;;;;;;;;;;;;;21.17;67.87;97257.67;588828;241;66350;-73
2022/10/14 02:36:26;;;;;;;;;;;;;;;21.16;67.94;97256.08;588659;238;68719;-72
2022/10/14 02:38:56;;;;;;;;;;;;;;;21.16;66.96;97267.56;588645;241;63055;-72
2022/10/14 02:41:26;;;;;;;;;;;;;;;21.15;67.93;97267.84;588620;241;68511;-72
2022/10/14 02:43:53;;;;;;;;;;;;;;;21.16;67.96;97264.09;588615;241;68712;-72
2022/10/14 02:46:21;;;;;;;;;;;;;;;21.15;67.69;97265.97;588588;241;65019;-72
2022/10/14 02:48:49;;;;;;;;;;;;;;;21.15;67.85;97265.97;588621;241;65752;-72
2022/10/14 02:51:17;;;;;;;;;;;;;;;21.15;67.74;97262.50;588559;241;68787;-73
2022/10/14 02:53:44;;;;;;;;;;;;;;;21.15;67.45;97262.50;588666;241;65044;-72
2022/10/14 02:56:16;;;;;;;;;;;;;;;21.14;67.34;97267.02;588592;241;66241;-72
2022/10/14 02:58:43;;;;;;;;;;;;;;;21.13;67.55;97262.75;588578;241;66339;-72
2022/10/14 03:01:11;;;;;;;;;;;;;;;21.14;68.30;97260.88;588551;241;65163;-72
2022/10/14 03:03:38;;;;;;;;;;;;;;;21.13;67.73;97256.61;588578;241;68887;-72
2022/10/14 03:06:06;;;;;;;;;;;;;;;21.13;67.28;97256.61;588666;241;67165;-73
2022/10/14 03:08:34;;;;;;;;;;;;;;;21.13;67.29;97261.95;588604;241;65859;-72
2022/10/14 03:11:03;;;;;;;;;;;;;;;21.13;67.42;97259.28;588563;241;67445;-72
2022/10/14 03:13:31;;;;;;;;;;;;;;;21.13;67.81;97251.27;588580;241;69091;-72
2022/10/14 03:15:59;;;;;;;;;;;;;;;21.12;67.56;97245.12;588574;241;62334;-72
2022/10/14 03:18:27;;;;;;;;;;;;;;;21.13;68.21;97246.72;588612;241;69676;-72
2022/10/14 03:20:56;;;;;;;;;;;;;;;21.12;67.96;97242.45;588654;238;47048;-72
2022/10/14 03:23:25;;;;;;;;;;;;;;;21.12;68.28;97244.33;588603;238;41973;-73
2022/10/14 03:25:53;;;;;;;;;;;;;;;21.11;67.79;97246.17;588552;241;67236;-73
2022/10/14 03:28:22;;;;;;;;;;;;;;;21.11;68.37;97245.38;588592;238;47345;-73
2022/10/14 03:30:52;;;;;;;;;;;;;;;21.12;68.93;97241.66;588605;240;43271;-73
2022/10/14 03:33:21;;;;;;;;;;;;;;;21.11;68.03;97240.03;588410;240;47431;-73
2022/10/14 03:35:53;;;;;;;;;;;;;;;21.11;68.50;97245.38;588548;238;50298;-73
2022/10/14 03:38:22;;;;;;;;;;;;;;;21.09;68.78;97236.81;588533;238;44012;-73
2022/10/14 03:40:50;;;;;;;;;;;;;;;21.09;68.52;97242.98;588594;241;68627;-74
2022/10/14 03:43:17;;;;;;;;;;;;;;;21.09;68.81;97242.98;588574;241;66218;-73
2022/10/14 03:45:47;;;;;;;;;;;;;;;21.10;68.16;97243.78;588448;238;46350;-74
2022/10/14 03:48:15;;;;;;;;;;;;;;;21.11;69.73;97240.03;588589;241;69820;-73
2022/10/14 03:50:43;;;;;;;;;;;;;;;21.10;68.61;97238.44;588531;241;69177;-68
2022/10/14 03:53:11;;;;;;;;;;;;;;;21.09;68.27;97231.47;588586;241;65723;-68
2022/10/14 03:55:40;;;;;;;;;;;;;;;21.08;68.40;97230.67;588528;241;69133;-68
2022/10/14 03:58:08;;;;;;;;;;;;;;;21.09;68.42;97239.48;588621;241;68710;-68
2022/10/14 04:00:36;;;;;;;;;;;;;;;21.08;68.38;97233.34;588574;241;65163;-68
2022/10/14 04:03:11;;;;;;;;;;;;;;;21.08;68.53;97235.22;588609;240;45937;-67
2022/10/14 04:05:40;;;;;;;;;;;;;;;21.08;68.51;97232.55;588527;241;68966;-67
2022/10/14 04:08:15;;;;;;;;;;;;;;;21.07;68.77;97229.08;588447;241;45224;-67
2022/10/14 04:10:44;;;;;;;;;;;;;;;21.08;68.86;97237.89;588623;240;44878;-67
2022/10/14 04:13:13;;;;;;;;;;;;;;;21.06;69.29;97238.97;588652;241;50509;-67
2022/10/14 04:15:41;;;;;;;;;;;;;;;21.06;68.87;97230.12;588526;241;65721;-68
2022/10/14 04:18:10;;;;;;;;;;;;;;;21.06;68.97;97233.63;588546;238;47881;-68
2022/10/14 04:20:38;;;;;;;;;;;;;;;21.06;68.97;97235.47;588479;241;65869;-72
2022/10/14 04:23:06;;;;;;;;;;;;;;;21.06;68.76;97232.80;588537;241;65616;-68
2022/10/14 04:25:36;;;;;;;;;;;;;;;21.06;68.41;97238.97;588599;241;69384;-68
2022/10/14 04:28:03;;;;;;;;;;;;;;;21.06;69.28;97235.47;588566;241;68523;-68
2022/10/14 04:30:33;;;;;;;;;;;;;;;21.05;68.50;97232.00;588467;238;45025;-68
2022/10/14 04:33:00;;;;;;;;;;;;;;;21.06;67.87;97236.30;588576;241;68742;-68
2022/10/14 04:35:29;;;;;;;;;;;;;;;21.07;67.46;97234.42;588537;241;66059;-68
2022/10/14 04:37:56;;;;;;;;;;;;;;;21.08;68.13;97235.22;588727;240;65645;-68
2022/10/14 04:40:27;;;;;;;;;;;;;;;21.09;67.30;97231.47;588785;241;45601;-68
2022/10/14 04:42:58;;;;;;;;;;;;;;;21.09;67.93;97226.95;588778;241;66037;-68
2022/10/14 04:45:30;;;;;;;;;;;;;;;21.10;66.93;97222.41;588697;241;43189;-68
2022/10/14 04:47:59;;;;;;;;;;;;;;;21.11;67.39;97229.34;588778;241;44865;-68
2022/10/14 04:50:27;;;;;;;;;;;;;;;21.12;67.50;97225.63;588741;241;66475;-68
2022/10/14 04:53:12;;;;;;;;;;;;;;;21.13;66.02;97232.56;588886;241;39147;-67
2022/10/14 04:55:43;;;;;;;;;;;;;;;21.14;67.59;97229.60;588698;241;45890;-66
2022/10/14 04:58:11;;;;;;;;;;;;;;;21.14;67.45;97234.95;588790;241;68560;-66
2022/10/14 05:00:41;;;;;;;;;;;;;;;21.15;68.17;97236.57;588761;241;65454;-66
2022/10/14 05:03:10;;;;;;;;;;;;;;;21.17;67.95;97239.78;588198;241;51349;-66
2022/10/14 05:05:38;;;;;;;;;;;;;;;21.17;67.38;97239.78;588750;241;68974;-67
2022/10/14 05:08:06;;;;;;;;;;;;;;;21.19;67.62;97239.50;588817;241;62844;-67
2022/10/14 05:10:35;;;;;;;;;;;;;;;21.21;67.99;97237.38;588644;241;50287;-67
2022/10/14 05:13:04;;;;;;;;;;;;;;;21.21;68.13;97238.17;588764;241;68566;-66
2022/10/14 05:15:33;;;;;;;;;;;;;;;21.22;67.84;97236.30;588774;241;42606;-69
2022/10/14 05:18:02;;;;;;;;;;;;;;;21.24;67.78;97228.82;588596;241;47282;-68
2022/10/14 05:20:36;;;;;;;;;;;;;;;21.26;68.24;97240.05;588232;239;49768;-69
2022/10/14 05:23:05;;;;;;;;;;;;;;;21.27;67.37;97237.09;588832;241;65029;-66
2022/10/14 05:25:32;;;;;;;;;;;;;;;21.29;67.19;97232.30;588764;241;68503;-73
2022/10/14 05:28:01;;;;;;;;;;;;;;;21.30;67.30;97233.09;588794;241;66234;-71
2022/10/14 05:30:28;;;;;;;;;;;;;;;21.31;67.38;97234.71;588770;241;64974;-73
2022/10/14 05:32:56;;;;;;;;;;;;;;;21.33;66.83;97232.55;588760;241;68890;-72
2022/10/14 05:35:24;;;;;;;;;;;;;;;21.35;66.85;97238.44;588786;241;66730;-72
2022/10/14 05:37:56;;;;;;;;;;;;;;;21.37;66.14;97238.19;588560;241;65803;-73
2022/10/14 05:40:23;;;;;;;;;;;;;;;21.39;67.04;97228.03;588595;241;68801;-73
2022/10/14 05:42:51;;;;;;;;;;;;;;;21.40;66.76;97230.45;588560;241;67276;-73
2022/10/14 05:45:21;;;;;;;;;;;;;;;21.42;65.61;97238.22;588604;241;63575;-73
2022/10/14 05:47:50;;;;;;;;;;;;;;;21.43;66.48;97227.23;588695;238;47475;-73
2022/10/14 05:50:18;;;;;;;;;;;;;;;21.45;66.45;97235.00;588424;241;69309;-73
2022/10/14 05:52:46;;;;;;;;;;;;;;;21.45;66.37;97227.78;588592;239;62426;-71
2022/10/14 05:55:15;;;;;;;;;;;;;;;21.46;66.05;97234.72;587797;240;50739;-73
2022/10/14 05:57:43;;;;;;;;;;;;;;;21.48;66.96;97235.27;588551;241;68772;-73
2022/10/14 06:00:12;;;;;;;;;;;;;;;21.49;65.77;97234.18;593797;233;65636;-74
2022/10/14 06:02:42;;;;;;;;;;;;;;;21.50;64.33;97235.80;594799;238;49459;-76
2022/10/14 06:05:11;;;;;;;;;;;;;;;21.52;66.14;97240.86;594843;238;46006;-76
2022/10/14 06:07:39;;;;;;;;;;;;;;;21.54;66.12;97235.27;594981;238;65622;-75
2022/10/14 06:10:06;;;;;;;;;;;;;;;21.54;64.96;97238.73;594880;238;68825;-75
2022/10/14 06:12:34;;;;;;;;;;;;;;;21.56;64.23;97246.50;594891;238;68372;-72
2022/10/14 06:15:02;;;;;;;;;;;;;;;21.57;64.87;97248.09;594952;238;62664;-76
2022/10/14 06:17:30;;;;;;;;;;;;;;;21.58;64.35;97250.52;594855;238;68783;-76
2022/10/14 06:19:57;;;;;;;;;;;;;;;21.59;63.76;97245.95;594875;238;66358;-68
2022/10/14 06:22:25;;;;;;;;;;;;;;;21.61;63.83;97247.30;594974;238;64877;-70
2022/10/14 06:24:53;;;;;;;;;;;;;;;21.62;64.88;97253.44;594903;238;68652;-69
2022/10/14 06:27:20;;;;;;;;;;;;;;;21.65;63.63;97255.58;594968;238;68573;-76
2022/10/14 06:29:48;;;;;;;;;;;;;;;21.66;64.42;97254.48;594872;238;62754;-74
2022/10/14 06:32:15;;;;;;;;;;;;;;;21.68;62.80;97255.83;594940;238;68720;-73
2022/10/14 06:34:43;;;;;;;;;;;;;;;21.71;63.30;97255.28;594958;238;68280;-76
2022/10/14 06:37:10;;;;;;;;;;;;;;;21.73;63.39;97252.35;598408;236;65207;-69
2022/10/14 06:39:37;;;;;;;;;;;;;;;21.75;63.14;97249.42;600754;236;69111;-76
2022/10/14 06:42:05;;;;;;;;;;;;;;;21.75;63.18;97255.57;600721;236;68282;-76
2022/10/14 06:44:33;;;;;;;;;;;;;;;21.77;63.57;97257.95;600678;236;62862;-75
2022/10/14 06:47:00;;;;;;;;;;;;;;;21.78;62.88;97254.23;600699;236;66655;-75
2022/10/14 06:49:28;;;;;;;;;;;;;;;21.80;64.46;97255.56;600679;236;68406;-74
2022/10/14 06:51:55;;;;;;;;;;;;;;;21.80;63.46;97255.56;600654;236;66058;-75
2022/10/14 06:54:23;;;;;;;;;;;;;;;21.81;64.39;97257.16;600740;236;69165;-77
2022/10/14 06:56:50;;;;;;;;;;;;;;;21.82;62.95;97256.08;600711;236;66185;-73
2022/10/14 06:59:18;;;;;;;;;;;;;;;21.83;62.61;97257.70;600645;236;62687;-68
2022/10/14 07:01:46;;;;;;;;;;;;;;;21.85;63.44;97252.89;600721;236;68615;-67
2022/10/14 07:04:13;;;;;;;;;;;;;;;21.86;63.11;97256.36;600691;236;68911;-74
2022/10/14 07:06:41;;;;;;;;;;;;;;;21.87;62.63;97258.74;600697;236;64879;-68
2022/10/14 07:09:08;;;;;;;;;;;;;;;21.86;61.63;97253.68;600667;236;66424;-69
2022/10/14 07:11:36;;;;;;;;;;;;;;;21.89;62.45;97251.26;600677;236;66425;-68
2022/10/14 07:14:03;;;;;;;;;;;;;;;21.91;62.25;97248.33;600651;236;65226;-65
2022/10/14 07:16:32;;;;;;;;;;;;;;;21.93;62.22;97244.30;600642;236;68700;-68
2022/10/14 07:18:59;;;;;;;;;;;;;;;21.94;62.72;97248.58;600741;236;66461;-66
2022/10/14 07:21:27;;;;;;;;;;;;;;;21.96;62.72;97240.26;600509;236;62732;-66
2022/10/14 07:23:54;;;;;;;;;;;;;;;21.98;63.05;97237.33;600692;236;66378;-67
2022/10/14 07:26:22;;;;;;;;;;;;;;;21.98;62.78;97237.33;600659;236;66118;-67
2022/10/14 07:28:49;;;;;;;;;;;;;;;22.01;62.91;97247.48;600525;236;65232;-67
2022/10/14 07:31:17;;;;;;;;;;;;;;;22.01;62.57;97236.78;600705;236;68668;-68
2022/10/14 07:33:44;;;;;;;;;;;;;;;22.02;63.22;97233.05;600669;236;68961;-67
2022/10/14 07:36:13;;;;;;;;;;;;;;;22.01;62.11;97234.89;600561;236;63854;-68
2022/10/14 07:38:41;;;;;;;;;;;;;;;22.04;62.38;97233.55;600606;236;68776;-66
2022/10/14 07:41:15;;;;;;;;;;;;;;;22.06;62.70;97239.45;600667;236;68712;-67
2022/10/14 07:43:39;;;;;;;;;;;;;;;22.06;63.18;97239.45;600574;236;66152;-67
2022/10/14 07:46:07;;;;;;;;;;;;;;;22.06;63.94;97229.53;600789;236;68814;-66
2022/10/14 07:48:34;;;;;;;;;;;;;;;22.06;64.29;97229.53;600693;236;66431;-71
2022/10/14 07:51:02;;;;;;;;;;;;;;;22.06;64.13;97223.39;600701;236;65211;-65
2022/10/14 07:53:29;;;;;;;;;;;;;;;22.08;64.64;97229.27;600753;236;69497;-68
2022/10/14 07:55:58;;;;;;;;;;;;;;;22.07;62.94;97227.66;600625;236;66338;-68
2022/10/14 07:58:27;;;;;;;;;;;;;;;22.09;63.33;97228.19;600675;236;65171;-68
2022/10/14 08:00:55;;;;;;;;;;;;;;;22.09;63.60;97222.84;600675;236;69046;-68
2022/10/14 08:03:23;;;;;;;;;;;;;;;22.10;63.14;97221.78;600626;236;66581;-69
2022/10/14 08:05:52;;;;;;;;;;;;;;;22.11;64.20;97218.02;600682;236;65029;-70
2022/10/14 08:08:22;;;;;;;;;;;;;;;22.11;64.26;97215.34;600475;236;68665;-71
2022/10/14 08:10:49;;;;;;;;;;;;;;;22.12;63.43;97208.91;600631;236;69516;-71
2022/10/14 08:13:17;;;;;;;;;;;;;;;22.11;65.13;97205.44;600739;236;62940;-72
2022/10/14 08:15:46;;;;;;;;;;;;;;;22.11;63.35;97201.96;600779;236;68872;-72
2022/10/14 08:18:13;;;;;;;;;;;;;;;22.12;64.17;97208.91;600644;236;66340;-72
2022/10/14 08:20:41;;;;;;;;;;;;;;;22.11;63.45;97197.41;600669;236;64915;-70
2022/10/14 08:23:08;;;;;;;;;;;;;;;22.12;62.83;97195.52;598980;236;68834;-72
2022/10/14 08:25:36;;;;;;;;;;;;;;;22.12;63.59;97190.17;600637;236;68729;-71
2022/10/14 08:28:04;;;;;;;;;;;;;;;22.13;62.45;97197.14;600675;236;65137;-71
2022/10/14 08:30:32;;;;;;;;;;;;;;;22.14;62.85;97193.38;600590;236;68795;-72
2022/10/14 08:32:59;;;;;;;;;;;;;;;22.15;64.50;97192.30;600652;236;66165;-72
2022/10/14 08:35:27;;;;;;;;;;;;;;;22.15;62.51;97192.30;600720;236;65076;-74
2022/10/14 08:37:58;;;;;;;;;;;;;;;22.16;63.47;97197.39;600731;236;66346;-72
2022/10/14 08:40:28;;;;;;;;;;;;;;;22.19;62.03;97193.39;600669;236;68305;-75
2022/10/14 08:43:00;;;;;;;;;;;;;;;22.19;62.58;97196.07;600390;236;64989;-69
2022/10/14 08:45:32;;;;;;;;;;;;;;;22.18;62.11;97197.16;600669;236;68846;-68
2022/10/14 08:48:01;;;;;;;;;;;;;;;22.21;62.52;97198.45;600707;236;68938;-73
2022/10/14 08:50:42;;;;;;;;;;;;;;;22.21;61.87;97198.45;600688;236;62785;-73
2022/10/14 08:53:14;;;;;;;;;;;;;;;22.19;61.95;97201.42;600585;236;66176;-72
2022/10/14 08:55:43;;;;;;;;;;;;;;;22.20;62.05;97197.66;600341;236;68627;-73
2022/10/14 08:58:13;;;;;;;;;;;;;;;22.19;62.28;97195.28;600656;236;65252;-72
2022/10/14 09:00:42;;;;;;;;;;;;;;;22.19;62.63;97197.95;600670;236;68589;-73
2022/10/14 09:03:11;;;;;;;;;;;;;;;22.20;62.54;97202.22;600657;233;66587;-73
2022/10/14 09:05:38;;;;;;;;;;;;;;;22.20;62.83;97203.02;595319;233;63826;-72
2022/10/14 09:08:07;;;;;;;;;;;;;;;22.19;62.81;97198.75;594400;238;68467;-72
2022/10/14 09:10:36;;;;;;;;;;;;;;;22.20;63.14;97203.02;594461;238;66447;-73
2022/10/14 09:13:08;;;;;;;;;;;;;;;22.20;64.00;97194.19;594388;238;64872;-77
2022/10/14 09:15:37;;;;;;;;;;;;;;;22.16;62.51;97191.23;594346;237;67749;-76
2022/10/14 09:18:06;;;;;;;;;;;;;;;22.17;63.23;97185.59;599894;233;66473;-74
2022/10/14 09:20:33;;;;;;;;;;;;;;;22.16;63.45;97191.23;594443;238;63739;-73
2022/10/14 09:23:06;;;;;;;;;;;;;;;22.15;64.79;97192.30;594410;238;68630;-73
2022/10/14 09:25:35;;;;;;;;;;;;;;;22.12;63.15;97192.84;594443;238;68548;-75
2022/10/14 09:28:03;;;;;;;;;;;;;;;22.09;63.88;97196.07;594434;238;62764;-76
2022/10/14 09:30:32;;;;;;;;;;;;;;;22.07;62.36;97191.01;594525;238;68819;-73
2022/10/14 09:32:59;;;;;;;;;;;;;;;22.05;62.27;97185.12;594525;238;68658;-74
2022/10/14 09:35:37;;;;;;;;;;;;;;;22.05;61.59;97189.67;594438;238;65084;-75
2022/10/14 09:38:08;;;;;;;;;;;;;;;22.04;60.49;97190.73;594584;233;66428;-69
2022/10/14 09:40:36;;;;;;;;;;;;;;;22.04;58.49;97188.05;594530;238;67388;-75
2022/10/14 09:43:11;;;;;;;;;;;;;;;22.05;60.29;97189.67;594421;238;63050;-73
2022/10/14 09:45:52;;;;;;;;;;;;;;;22.02;60.35;97184.88;594522;238;66350;-71
2022/10/14 09:48:22;;;;;;;;;;;;;;;22.02;58.99;97190.23;594436;238;66483;-68
2022/10/14 09:50:51;;;;;;;;;;;;;;;22.01;60.22;97186.73;593971;238;62774;-73
2022/10/14 09:53:22;;;;;;;;;;;;;;;22.00;58.57;97192.38;594448;238;68864;-73
2022/10/14 09:55:51;;;;;;;;;;;;;;;21.99;57.31;97180.05;594457;238;66136;-75
2022/10/14 09:58:20;;;;;;;;;;;;;;;21.99;59.17;97186.22;594049;238;65147;-76
2022/10/14 10:00:49;;;;;;;;;;;;;;;21.98;59.64;97186.48;594291;238;66355;-74
2022/10/14 10:03:27;;;;;;;;;;;;;;;21.98;57.78;97189.16;594287;238;67793;-73
2022/10/14 10:06:00;;;;;;;;;;;;;;;21.97;57.54;97182.22;594455;238;62682;-73
2022/10/14 10:08:27;;;;;;;;;;;;;;;21.97;57.85;97182.22;594389;238;66744;-73
2022/10/14 10:10:59;;;;;;;;;;;;;;;21.94;56.69;97181.68;594351;238;68649;-73
2022/10/14 10:13:32;;;;;;;;;;;;;;;21.97;54.21;97176.86;594491;238;66047;-73
2022/10/14 10:16:00;;;;;;;;;;;;;;;21.98;54.25;97183.80;594452;238;69005;-76
2022/10/14 10:18:28;;;;;;;;;;;;;;;21.98;56.82;97176.58;594453;238;68984;-73
2022/10/14 10:21:05;;;;;;;;;;;;;;;21.99;55.76;97174.69;594523;238;62909;-73
2022/10/14 10:23:34;;;;;;;;;;;;;;;21.99;55.20;97170.16;594515;238;68756;-74
2022/10/14 10:26:11;;;;;;;;;;;;;;;22.00;55.35;97170.96;594492;238;50230;-73
2022/10/14 10:28:40;;;;;;;;;;;;;;;22.01;55.47;97169.88;591056;238;65028;-73
2022/10/14 10:31:23;;;;;;;;;;;;;;;22.00;57.07;97163.73;594359;238;67731;-73
2022/10/14 10:33:58;;;;;;;;;;;;;;;21.99;55.68;97162.14;594464;238;66655;-73
2022/10/14 10:36:27;;;;;;;;;;;;;;;22.00;57.24;97158.37;593557;238;62667;-73
2022/10/14 10:39:00;;;;;;;;;;;;;;;22.00;57.06;97161.05;591276;240;68751;-73
2022/10/14 10:41:31;;;;;;;;;;;;;;;22.00;56.13;97154.91;591329;240;68899;-73
2022/10/14 10:44:21;;;;;;;;;;;;;;;22.00;56.82;97158.37;591348;240;66142;-75
2022/10/14 10:46:53;;;;;;;;;;;;;;;22.00;57.38;97160.26;591314;240;68753;-75
2022/10/14 10:49:27;;;;;;;;;;;;;;;21.99;55.79;97158.64;591075;240;69196;-73
2022/10/14 10:51:56;;;;;;;;;;;;;;;21.99;55.87;97154.11;578783;240;62702;-76
2022/10/14 10:54:29;;;;;;;;;;;;;;;21.99;56.64;97153.28;591031;238;66210;-72
2022/10/14 10:57:01;;;;;;;;;;;;;;;21.98;57.27;97152.48;591184;240;68544;-74
2022/10/14 10:59:34;;;;;;;;;;;;;;;21.97;56.00;97148.22;591367;240;65005;-73
2022/10/14 11:02:06;;;;;;;;;;;;;;;21.98;55.87;97140.99;591138;240;67156;-67
2022/10/14 11:04:35;;;;;;;;;;;;;;;21.99;56.10;97145.26;591381;240;66461;-76
2022/10/14 11:12:58;;;;;;;;;;;;;;;21.99;55.06;97139.91;591392;240;68719;-68
2022/10/14 11:15:27;;;;;;;;;;;;;;;21.99;55.81;97126.52;591235;240;65164;-67
2022/10/14 11:18:02;;;;;;;;;;;;;;;22.00;57.46;97128.14;591163;240;68914;-68
2022/10/14 11:20:48;;;;;;;;;;;;;;;21.99;58.07;97126.52;591331;240;66839;-67
2022/10/14 11:23:30;;;;;;;;;;;;;;;21.99;56.42;97126.52;591141;237;62517;-69
2022/10/14 11:26:08;;;;;;;;;;;;;;;21.99;56.79;97119.32;591343;240;68759;-69
2022/10/14 11:28:43;;;;;;;;;;;;;;;21.99;56.55;97115.82;591218;240;66503;-68
2022/10/14 11:31:15;;;;;;;;;;;;;;;21.98;57.92;97109.67;591180;240;65339;-69
2022/10/14 11:34:00;;;;;;;;;;;;;;;21.99;57.15;97113.14;591378;240;68670;-69
2022/10/14 11:36:30;;;;;;;;;;;;;;;21.99;57.28;97116.65;590486;240;69056;-68
2022/10/14 11:41:41;;;;;;;;;;;;;;;21.99;56.97;97110.47;604776;234;39148;-67
2022/10/14 11:44:19;;;;;;;;;;;;;;;21.98;56.72;97112.35;604102;235;69026;-68
2022/10/14 11:46:48;;;;;;;;;;;;;;;22.00;56.89;97106.73;604188;235;62971;-69
2022/10/14 11:49:22;;;;;;;;;;;;;;;21.99;57.07;97100.59;604190;235;48532;-70
2022/10/14 11:52:01;;;;;;;;;;;;;;;22.00;58.27;97096.03;603996;234;68981;-69
2022/10/14 11:54:36;;;;;;;;;;;;;;;21.99;58.16;97095.23;604152;235;63989;-68
2022/10/14 11:57:11;;;;;;;;;;;;;;;21.98;57.48;97095.50;604058;235;69498;-67
2022/10/14 12:02:55;;;;;;;;;;;;;;;21.95;56.50;97081.59;604177;235;62616;-69
2022/10/14 12:05:24;;;;;;;;;;;;;;;21.94;56.27;97085.35;604067;235;68651;-67
2022/10/14 12:08:09;;;;;;;;;;;;;;;21.93;57.09;97086.44;604088;234;66603;-69
2022/10/14 12:10:42;;;;;;;;;;;;;;;21.93;56.12;97080.27;604143;235;66030;-69
2022/10/14 12:13:12;;;;;;;;;;;;;;;21.92;55.63;97067.97;604045;234;71012;-70
2022/10/14 12:15:41;;;;;;;;;;;;;;;21.92;56.19;97067.97;604131;235;66430;-67
2022/10/14 12:18:11;;;;;;;;;;;;;;;21.92;55.54;97059.94;604159;235;65947;-68
2022/10/14 12:20:43;;;;;;;;;;;;;;;21.91;56.50;97061.83;604099;235;68912;-68
2022/10/14 12:23:12;;;;;;;;;;;;;;;21.92;56.74;97065.30;604156;235;66454;-70
2022/10/14 12:25:42;;;;;;;;;;;;;;;21.92;55.21;97067.97;604223;235;65593;-67
2022/10/14 12:28:11;;;;;;;;;;;;;;;21.91;57.31;97067.17;601433;234;68591;-69
2022/10/14 12:30:40;;;;;;;;;;;;;;;21.89;58.16;97074.67;602489;235;66231;-69
2022/10/14 12:33:09;;;;;;;;;;;;;;;21.88;56.72;97070.41;604071;235;65144;-69
2022/10/14 12:35:46;;;;;;;;;;;;;;;21.88;57.78;97075.75;604198;232;46536;-68
2022/10/14 12:38:15;;;;;;;;;;;;;;;21.86;56.80;97075.22;604127;234;45845;-68
2022/10/14 12:40:47;;;;;;;;;;;;;;;21.86;57.05;97069.88;602841;234;63745;-69
2022/10/14 12:43:28;;;;;;;;;;;;;;;21.86;57.53;97072.55;602029;235;66443;-69
2022/10/14 12:46:02;;;;;;;;;;;;;;;21.84;57.47;97063.19;602420;235;48358;-68
2022/10/14 12:48:31;;;;;;;;;;;;;;;21.85;56.64;97065.61;602327;235;62803;-68
2022/10/14 12:51:10;;;;;;;;;;;;;;;21.84;57.70;97061.31;602352;235;68610;-68
2022/10/14 12:53:39;;;;;;;;;;;;;;;21.84;58.56;97060.52;602362;235;66569;-75
2022/10/14 12:56:07;;;;;;;;;;;;;;;21.83;59.35;97066.95;602299;235;65175;-76
2022/10/14 12:58:39;;;;;;;;;;;;;;;21.83;57.14;97053.58;602379;235;65873;-76
2022/10/14 13:01:07;;;;;;;;;;;;;;;21.82;58.62;97057.31;602300;235;66348;-77
2022/10/14 13:03:36;;;;;;;;;;;;;;;21.81;57.09;97056.52;602174;235;63775;-76
2022/10/14 13:06:15;;;;;;;;;;;;;;;21.81;53.96;97061.87;602211;235;68853;-79
2022/10/14 13:08:42;;;;;;;;;;;;;;;21.80;55.67;97064.80;594010;237;67333;-77
2022/10/14 13:11:16;;;;;;;;;;;;;;;21.80;57.59;97065.63;602055;235;64917;-77
2022/10/14 13:13:52;;;;;;;;;;;;;;;21.79;57.67;97061.33;602378;235;45849;-74